Time;durP1;ratioP1;P1;durP2;ratioP2;P2;SDS_P1;SDS_P2;PMS_P1;PMS_P2;Temp;Humidity;BMP_temperature;BMP_pressure;BME280_temperature;BME280_humidity;BME280_pressure;Samples;Min_cycle;Max_cycle;Signal;HPM_P1;HPM_P2
2023/10/23 00:01:41;;;;;;;14.17;7.83;;;;;;;-145.18;100.00;46638.91;5028524;28;20072;-68
2023/10/23 00:04:07;;;;;;;10.87;6.97;;;;;;;-145.18;100.00;46660.41;5027378;28;20026;-68
2023/10/23 00:06:33;;;;;;;11.03;7.40;;;;;;;-145.18;100.00;46636.94;5029769;28;20067;-68
2023/10/23 00:08:59;;;;;;;9.77;7.17;;;;;;;-145.18;100.00;46638.91;5026772;28;20526;-67
2023/10/23 00:11:30;;;;;;;11.63;7.73;;;;;;;-145.18;100.00;46636.94;5029652;28;20121;-68
2023/10/23 00:13:56;;;;;;;8.57;6.67;;;;;;;-145.18;100.00;46660.41;5030701;28;20025;-68
2023/10/23 00:16:22;;;;;;;10.50;7.13;;;;;;;-145.18;100.00;46636.94;5026346;28;20444;-67
2023/10/23 00:18:48;;;;;;;11.83;7.40;;;;;;;-145.18;100.00;46660.41;5031468;28;20030;-68
2023/10/23 00:21:14;;;;;;;9.30;7.23;;;;;;;-145.18;100.00;46636.94;5029045;28;20084;-68
2023/10/23 00:23:39;;;;;;;11.27;7.43;;;;;;;-145.18;100.00;46660.41;5032320;28;20033;-68
2023/10/23 00:26:05;;;;;;;10.13;7.17;;;;;;;-145.18;100.00;46660.41;5031103;28;20041;-69
2023/10/23 00:28:32;;;;;;;14.20;8.50;;;;;;;-145.18;100.00;46636.94;5028252;28;20105;-69
2023/10/23 00:30:57;;;;;;;12.73;8.10;;;;;;;-145.18;100.00;46660.41;5027060;28;20045;-69
2023/10/23 00:33:22;;;;;;;13.23;8.63;;;;;;;-145.18;100.00;46676.03;5029296;28;20619;-69
2023/10/23 00:35:48;;;;;;;12.57;8.43;;;;;;;-145.18;100.00;46660.41;5028539;28;20026;-69
2023/10/23 00:38:13;;;;;;;14.33;8.53;;;;;;;-145.18;100.00;46660.41;5031383;28;20080;-69
2023/10/23 00:40:38;;;;;;;16.80;8.53;;;;;;;-145.18;100.00;46660.41;5030808;28;20124;-69
2023/10/23 00:43:30;;;;;;;11.70;8.37;;;;;;;-145.18;100.00;46660.41;5026248;28;20500;-69
2023/10/23 00:46:00;;;;;;;12.03;8.20;;;;;;;-145.18;100.00;46660.41;5028326;28;20118;-69
2023/10/23 00:48:27;;;;;;;10.83;8.17;;;;;;;-145.18;100.00;46660.41;5029294;28;20033;-69
2023/10/23 00:50:58;;;;;;;12.33;8.17;;;;;;;-145.18;100.00;46660.41;5031267;28;20040;-69
2023/10/23 00:53:25;;;;;;;11.90;7.87;;;;;;;-145.18;100.00;46660.41;5029200;28;20035;-69
2023/10/23 00:55:52;;;;;;;12.13;8.03;;;;;;;-145.18;100.00;46660.41;5031063;28;20040;-69
2023/10/23 00:58:18;;;;;;;11.83;8.53;;;;;;;-145.18;100.00;46660.41;5029386;28;20061;-69
2023/10/23 01:00:44;;;;;;;14.47;8.30;;;;;;;-145.18;100.00;46660.41;5029344;28;20135;-69
2023/10/23 01:03:10;;;;;;;12.40;8.50;;;;;;;-145.18;100.00;46660.41;5027850;28;20029;-70
2023/10/23 01:05:36;;;;;;;12.00;8.10;;;;;;;-145.18;100.00;46660.41;5026503;28;20486;-69
2023/10/23 01:08:02;;;;;;;12.33;8.37;;;;;;;-145.18;100.00;46660.41;5031014;28;20075;-69
2023/10/23 01:10:27;;;;;;;15.40;8.47;;;;;;;-145.18;100.00;46660.41;5028943;28;20026;-69
2023/10/23 01:12:54;;;;;;;13.03;7.70;;;;;;;-145.18;100.00;46660.41;5028622;28;20454;-69
2023/10/23 01:15:20;;;;;;;12.83;9.17;;;;;;;-145.18;100.00;46660.41;5031246;28;20036;-69
2023/10/23 01:17:45;;;;;;;11.50;8.70;;;;;;;-145.18;100.00;46660.41;5029070;28;20041;-69
2023/10/23 01:20:14;;;;;;;15.87;8.97;;;;;;;-145.18;100.00;46660.41;5027242;28;20033;-69
2023/10/23 01:22:39;;;;;;;12.53;8.30;;;;;;;-145.18;100.00;46660.41;5029479;28;20030;-70
2023/10/23 01:25:15;;;;;;;10.10;8.10;;;;;;;-145.18;100.00;46660.41;5030297;28;20048;-69
2023/10/23 01:27:41;;;;;;;18.95;8.60;;;;;;;-145.18;100.00;46660.41;5026582;28;20025;-69
2023/10/23 01:30:10;;;;;;;12.97;8.40;;;;;;;-145.18;100.00;46660.41;5029457;28;20075;-69
2023/10/23 01:32:36;;;;;;;15.27;8.33;;;;;;;-145.18;100.00;46660.41;5027096;28;20408;-69
2023/10/23 01:35:03;;;;;;;13.53;7.83;;;;;;;-145.18;100.00;46660.41;5027084;28;20033;-69
2023/10/23 01:37:28;;;;;;;12.47;7.20;;;;;;;-145.18;100.00;46660.41;5027889;28;20045;-67
2023/10/23 01:39:53;;;;;;;15.17;8.03;;;;;;;-145.18;100.00;46660.41;5028776;28;20040;-68
2023/10/23 01:42:19;;;;;;;9.87;7.67;;;;;;;-145.18;100.00;46660.41;5027920;28;20038;-68
2023/10/23 01:44:44;;;;;;;15.27;7.47;;;;;;;-145.18;100.00;46660.41;5028429;28;20033;-68
2023/10/23 01:47:10;;;;;;;12.60;7.00;;;;;;;-145.18;100.00;46660.41;5030154;28;20048;-68
2023/10/23 01:49:35;;;;;;;11.73;8.27;;;;;;;-145.18;100.00;46660.41;5028542;28;21551;-68
2023/10/23 01:52:01;;;;;;;13.70;7.63;;;;;;;-145.18;100.00;46660.41;5028827;28;20117;-68
2023/10/23 01:54:26;;;;;;;11.17;7.50;;;;;;;-145.18;100.00;46660.41;5025858;28;20037;-68
2023/10/23 01:56:52;;;;;;;14.20;8.00;;;;;;;-145.18;100.00;46660.41;5029432;28;20112;-68
2023/10/23 01:59:17;;;;;;;13.03;8.27;;;;;;;-145.18;100.00;46635.00;5026747;28;20039;-68
2023/10/23 02:01:43;;;;;;;9.83;7.90;;;;;;;-145.18;100.00;46660.41;5030542;28;20068;-68
2023/10/23 02:04:08;;;;;;;13.33;8.47;;;;;;;-145.18;100.00;46660.41;5027874;28;20029;-68
2023/10/23 02:06:34;;;;;;;14.60;8.23;;;;;;;-145.18;100.00;46660.41;5028292;28;20037;-68
2023/10/23 02:08:59;;;;;;;12.00;8.10;;;;;;;-145.18;100.00;46636.94;5027878;28;20033;-68
2023/10/23 02:11:25;;;;;;;11.70;7.57;;;;;;;-145.18;100.00;46676.03;5027689;28;20061;-68
2023/10/23 02:13:50;;;;;;;13.07;8.20;;;;;;;-145.18;100.00;46660.41;5030755;28;20026;-68
2023/10/23 02:16:16;;;;;;;12.97;7.83;;;;;;;-145.18;100.00;46660.41;5030056;28;20037;-67
2023/10/23 02:18:41;;;;;;;13.13;7.60;;;;;;;-145.18;100.00;46642.81;5030534;28;20036;-68
2023/10/23 02:21:06;;;;;;;10.23;7.57;;;;;;;-145.18;100.00;46636.94;5029931;28;20041;-68
2023/10/23 02:23:32;;;;;;;12.93;7.50;;;;;;;-145.18;100.00;46638.91;5031094;28;20174;-68
2023/10/23 02:25:58;;;;;;;9.40;6.93;;;;;;;-145.18;100.00;46640.88;5029235;28;20037;-68
2023/10/23 02:28:23;;;;;;;11.40;7.27;;;;;;;-145.18;100.00;46638.91;5027770;28;20108;-68
2023/10/23 02:30:49;;;;;;;10.13;6.93;;;;;;;-145.18;100.00;46636.94;5028352;28;20029;-68
2023/10/23 02:33:14;;;;;;;17.37;6.37;;;;;;;-145.18;100.00;46638.91;5029657;28;20458;-68
2023/10/23 02:35:40;;;;;;;17.90;5.60;;;;;;;-145.18;100.00;46638.91;5027722;28;20580;-68
2023/10/23 02:38:06;;;;;;;15.43;7.00;;;;;;;-145.18;100.00;46638.91;5029631;28;20055;-67
2023/10/23 02:40:31;;;;;;;25.00;6.97;;;;;;;-145.18;100.00;46660.41;5027385;28;20056;-68
2023/10/23 02:42:56;;;;;;;13.10;7.37;;;;;;;-145.18;100.00;46660.41;5031452;28;20120;-68
2023/10/23 02:45:22;;;;;;;11.53;7.00;;;;;;;-145.18;100.00;46638.91;5033795;28;20359;-67
2023/10/23 02:47:47;;;;;;;13.27;8.30;;;;;;;-145.18;100.00;46636.94;5032640;28;20068;-69
2023/10/23 02:50:13;;;;;;;11.37;7.80;;;;;;;-145.18;100.00;46660.41;5031589;28;20021;-69
2023/10/23 02:52:38;;;;;;;11.83;7.13;;;;;;;-145.18;100.00;46640.88;5031130;28;20029;-69
2023/10/23 02:55:04;;;;;;;13.53;7.77;;;;;;;-145.18;100.00;46660.41;5033086;28;20025;-69
2023/10/23 02:57:30;;;;;;;12.20;8.70;;;;;;;-145.18;100.00;46660.41;5031402;28;20029;-69
2023/10/23 02:59:56;;;;;;;12.70;7.63;;;;;;;-145.18;100.00;46636.94;5030073;28;20021;-68
2023/10/23 03:02:22;;;;;;;11.83;8.17;;;;;;;-145.18;100.00;46660.41;5029150;28;20521;-69
2023/10/23 03:04:47;;;;;;;14.27;8.13;;;;;;;-145.18;100.00;46660.41;5031401;28;20045;-69
2023/10/23 03:07:13;;;;;;;13.37;7.87;;;;;;;-145.18;100.00;46676.03;5027417;28;20029;-69
2023/10/23 03:09:38;;;;;;;14.50;7.77;;;;;;;-145.18;100.00;46638.91;5033409;28;20029;-69
2023/10/23 03:12:04;;;;;;;12.13;7.97;;;;;;;-145.18;100.00;46660.41;5031571;28;20038;-69
2023/10/23 03:14:30;;;;;;;15.50;8.33;;;;;;;-145.18;100.00;46660.41;5032270;28;20029;-69
2023/10/23 03:16:55;;;;;;;12.77;8.60;;;;;;;-145.18;100.00;46660.41;5031211;28;20042;-69
2023/10/23 03:19:24;;;;;;;12.77;7.73;;;;;;;-145.18;100.00;46636.94;5032928;28;20116;-69
2023/10/23 03:21:49;;;;;;;10.40;7.40;;;;;;;-145.18;100.00;46636.94;5027795;28;20502;-69
2023/10/23 03:24:15;;;;;;;11.40;8.27;;;;;;;-145.18;100.00;46660.41;5028789;28;20041;-69
2023/10/23 03:26:41;;;;;;;11.47;8.30;;;;;;;-145.18;100.00;46660.41;5023519;28;20160;-69
2023/10/23 03:29:06;;;;;;;14.77;9.23;;;;;;;-145.18;100.00;46636.94;5024714;28;20033;-69
2023/10/23 03:31:32;;;;;;;12.73;8.07;;;;;;;-145.18;100.00;46660.41;5029296;28;20045;-69
2023/10/23 03:33:59;;;;;;;11.83;8.13;;;;;;;-145.18;100.00;46635.00;5031173;28;20139;-69
2023/10/23 03:36:24;;;;;;;14.93;8.17;;;;;;;-145.18;100.00;46660.41;5031355;28;20027;-69
2023/10/23 03:38:50;;;;;;;11.90;7.90;;;;;;;-145.18;100.00;46660.41;5028259;28;20140;-69
2023/10/23 03:41:15;;;;;;;12.53;8.43;;;;;;;-145.18;100.00;46660.41;5031281;28;20508;-69
2023/10/23 03:43:40;;;;;;;12.20;7.90;;;;;;;-145.18;100.00;46660.41;5029426;28;20399;-69
2023/10/23 03:46:06;;;;;;;12.37;7.13;;;;;;;-145.18;100.00;46660.41;5029610;28;20033;-69
2023/10/23 03:48:37;;;;;;;11.27;7.20;;;;;;;-145.18;100.00;46636.94;5032388;28;20028;-69
2023/10/23 03:51:03;;;;;;;14.03;7.90;;;;;;;-145.18;100.00;46660.41;5018301;28;20025;-69
2023/10/23 03:53:29;;;;;;;12.07;7.63;;;;;;;-145.18;100.00;46676.03;5029492;28;20080;-69
2023/10/23 03:55:55;;;;;;;10.80;7.43;;;;;;;-145.18;100.00;46640.88;5032004;28;20041;-70
2023/10/23 03:58:21;;;;;;;12.63;7.37;;;;;;;-145.18;100.00;46660.41;5032278;28;20045;-69
2023/10/23 04:00:50;;;;;;;12.80;7.40;;;;;;;-145.18;100.00;46635.00;5030165;28;20127;-69
2023/10/23 04:03:15;;;;;;;11.30;7.90;;;;;;;-145.18;100.00;46660.41;5030746;28;20025;-69
2023/10/23 04:05:41;;;;;;;11.80;7.50;;;;;;;-145.18;100.00;46660.41;5026620;28;20029;-69
2023/10/23 04:08:06;;;;;;;13.60;7.93;;;;;;;-145.18;100.00;46660.41;5031137;28;20061;-69
2023/10/23 04:10:32;;;;;;;12.23;6.60;;;;;;;-145.18;100.00;46660.41;5028611;28;20035;-69
2023/10/23 04:12:57;;;;;;;12.30;7.47;;;;;;;-145.18;100.00;46635.00;5029688;28;20486;-69
2023/10/23 04:15:24;;;;;;;10.97;7.90;;;;;;;-145.18;100.00;46636.94;5030365;28;20040;-69
2023/10/23 04:17:49;;;;;;;12.13;6.97;;;;;;;-145.18;100.00;46660.41;5014298;28;20328;-69
2023/10/23 04:20:15;;;;;;;12.20;8.13;;;;;;;-145.18;100.00;46660.41;5029779;28;20048;-69
2023/10/23 04:22:40;;;;;;;22.07;9.00;;;;;;;-145.18;100.00;46660.41;5022367;28;20030;-69
2023/10/23 04:25:06;;;;;;;18.40;9.87;;;;;;;-145.18;100.00;46636.94;5028832;28;20100;-69
2023/10/23 04:27:31;;;;;;;30.87;9.00;;;;;;;-145.18;100.00;46660.41;5029032;28;20065;-69
2023/10/23 04:29:59;;;;;;;17.10;8.03;;;;;;;-145.18;100.00;46635.00;5031626;28;20041;-69
2023/10/23 04:32:25;;;;;;;13.97;8.40;;;;;;;-145.18;100.00;46636.94;5030821;28;20037;-69
2023/10/23 04:34:50;;;;;;;20.03;8.00;;;;;;;-145.18;100.00;46660.41;5030717;28;20123;-69
2023/10/23 04:37:15;;;;;;;22.23;7.87;;;;;;;-145.18;100.00;46636.94;5029036;28;20141;-69
2023/10/23 04:39:41;;;;;;;19.80;7.60;;;;;;;-145.18;100.00;46660.41;5022379;28;20041;-69
2023/10/23 04:42:06;;;;;;;9.83;7.40;;;;;;;-145.18;100.00;46660.41;5041230;28;20124;-69
2023/10/23 04:44:32;;;;;;;16.60;7.67;;;;;;;-145.18;100.00;46636.94;5028625;28;20064;-69
2023/10/23 04:46:57;;;;;;;20.90;7.47;;;;;;;-145.18;100.00;46660.41;5029341;28;20112;-69
2023/10/23 04:49:22;;;;;;;24.23;7.07;;;;;;;-145.18;100.00;46638.91;5029054;28;20036;-69
2023/10/23 04:51:48;;;;;;;10.77;5.87;;;;;;;-145.18;100.00;46636.94;5030115;28;20112;-69
2023/10/23 04:54:14;;;;;;;9.13;6.47;;;;;;;-145.18;100.00;46660.41;5021233;28;20037;-69
2023/10/23 04:56:41;;;;;;;11.03;6.07;;;;;;;-145.18;100.00;46635.00;5018143;28;20478;-69
2023/10/23 04:59:07;;;;;;;7.70;5.77;;;;;;;-145.18;100.00;46660.41;5021826;28;20045;-69
2023/10/23 05:01:33;;;;;;;7.00;5.70;;;;;;;-145.18;100.00;46660.41;5015564;28;20091;-69
2023/10/23 05:03:58;;;;;;;8.73;5.63;;;;;;;-145.18;100.00;46640.88;5013252;28;20029;-69
2023/10/23 05:06:26;;;;;;;9.63;5.47;;;;;;;-145.18;100.00;46638.91;5018559;28;20419;-69
2023/10/23 05:08:52;;;;;;;18.53;6.37;;;;;;;-145.18;100.00;46636.94;5031565;28;20436;-69
2023/10/23 05:11:17;;;;;;;9.57;6.00;;;;;;;-145.18;100.00;46638.91;5014719;28;20036;-69
2023/10/23 05:13:43;;;;;;;15.10;5.73;;;;;;;-145.18;100.00;46636.94;5010795;28;20125;-69
2023/10/23 05:16:09;;;;;;;19.63;6.33;;;;;;;-145.18;100.00;46638.91;5015911;28;20036;-69
2023/10/23 05:18:34;;;;;;;18.43;6.33;;;;;;;-145.18;100.00;46640.88;5030674;28;20029;-69
2023/10/23 05:21:10;;;;;;;8.23;5.57;;;;;;;-145.18;100.00;46636.94;5030933;28;20037;-69
2023/10/23 05:23:36;;;;;;;15.73;5.43;;;;;;;-145.18;100.00;46640.88;5031194;28;20037;-69
2023/10/23 05:26:01;;;;;;;15.03;5.70;;;;;;;-145.18;100.00;46638.91;5028238;28;20366;-69
2023/10/23 05:28:27;;;;;;;15.93;5.93;;;;;;;-145.18;100.00;46642.81;5018328;28;20113;-69
2023/10/23 05:30:52;;;;;;;9.07;5.23;;;;;;;-145.18;100.00;46642.81;5019068;28;20104;-69
2023/10/23 05:33:19;;;;;;;9.43;5.63;;;;;;;-145.18;100.00;46638.91;5028214;28;20030;-69
2023/10/23 05:35:44;;;;;;;29.47;5.53;;;;;;;-145.18;100.00;46640.88;5024952;28;20026;-69
2023/10/23 05:38:09;;;;;;;23.63;5.80;;;;;;;-145.18;100.00;46642.81;5016664;28;20061;-69
2023/10/23 05:40:35;;;;;;;13.47;5.07;;;;;;;-145.18;100.00;46642.81;5013044;28;20072;-69
2023/10/23 05:43:00;;;;;;;13.70;5.33;;;;;;;-145.18;100.00;46642.81;5025069;28;20038;-69
2023/10/23 05:45:25;;;;;;;17.63;5.10;;;;;;;-145.18;100.00;46644.78;5016708;28;20025;-69
2023/10/23 05:47:51;;;;;;;29.43;5.67;;;;;;;-145.18;100.00;46642.81;5026301;28;20037;-69
2023/10/23 05:50:16;;;;;;;10.17;5.37;;;;;;;-145.18;100.00;46640.88;5016264;28;20470;-69
2023/10/23 05:52:41;;;;;;;9.07;4.73;;;;;;;-145.18;100.00;46642.81;5025508;28;20030;-69
2023/10/23 05:55:08;;;;;;;8.07;4.93;;;;;;;-145.18;100.00;46640.88;5027282;28;20040;-68
2023/10/23 05:57:34;;;;;;;14.73;5.50;;;;;;;-145.18;100.00;46642.81;5013925;28;20448;-69
2023/10/23 05:59:59;;;;;;;25.80;5.77;;;;;;;-145.18;100.00;46640.88;5026023;28;20279;-68
2023/10/23 06:02:25;;;;;;;12.67;5.30;;;;;;;-145.18;100.00;46640.88;5012759;28;20029;-69
2023/10/23 06:04:50;;;;;;;15.10;5.70;;;;;;;-145.18;100.00;46644.78;5013874;28;20026;-68
2023/10/23 06:07:16;;;;;;;8.90;5.43;;;;;;;-145.18;100.00;46642.81;5011994;28;20037;-69
2023/10/23 06:09:41;;;;;;;12.83;5.90;;;;;;;-145.18;100.00;46640.88;5012510;28;20068;-69
2023/10/23 06:12:06;;;;;;;21.43;6.33;;;;;;;-145.18;100.00;46644.78;5010532;28;20025;-69
2023/10/23 06:14:32;;;;;;;10.27;6.17;;;;;;;-145.18;100.00;46644.78;5015701;28;20029;-69
2023/10/23 06:16:57;;;;;;;19.47;6.77;;;;;;;-145.18;100.00;46644.78;5016828;28;20041;-67
2023/10/23 06:19:23;;;;;;;26.10;6.07;;;;;;;-145.18;100.00;46646.72;5019707;28;20993;-67
2023/10/23 06:21:48;;;;;;;7.80;4.90;;;;;;;-145.18;100.00;46640.88;5025532;28;20096;-67
2023/10/23 06:24:15;;;;;;;10.13;5.47;;;;;;;-145.18;100.00;46646.72;5029415;28;20497;-67
2023/10/23 06:26:40;;;;;;;39.40;6.83;;;;;;;-145.18;100.00;46642.81;5027527;28;20026;-67
2023/10/23 06:29:05;;;;;;;45.77;6.13;;;;;;;-145.18;100.00;46640.88;5043158;28;20259;-67
2023/10/23 06:31:31;;;;;;;28.63;6.13;;;;;;;-145.18;100.00;46640.88;5017950;28;20026;-68
2023/10/23 06:33:57;;;;;;;14.40;5.67;;;;;;;-145.18;100.00;46640.88;5023130;28;20148;-68
2023/10/23 06:36:22;;;;;;;9.43;5.20;;;;;;;-145.18;100.00;46635.00;5030221;28;20025;-67
2023/10/23 06:38:48;;;;;;;8.60;5.57;;;;;;;-145.18;100.00;46642.81;5025195;28;20409;-67
2023/10/23 06:41:13;;;;;;;24.60;8.00;;;;;;;-145.18;100.00;46640.88;5018669;28;20113;-67
2023/10/23 06:43:39;;;;;;;21.07;7.07;;;;;;;-145.18;100.00;46640.88;5032080;28;20109;-67
2023/10/23 06:46:04;;;;;;;21.83;8.00;;;;;;;-145.18;100.00;46642.81;5025221;28;20109;-67
2023/10/23 06:48:31;;;;;;;41.00;8.30;;;;;;;-145.18;100.00;46640.88;5033877;28;20473;-67
2023/10/23 06:50:56;;;;;;;41.73;9.83;;;;;;;-145.18;100.00;46640.88;5032971;28;20034;-67
2023/10/23 06:53:22;;;;;;;51.67;9.77;;;;;;;-145.18;100.00;46636.94;5028811;28;20031;-68
2023/10/23 06:55:48;;;;;;;71.20;10.40;;;;;;;-145.18;100.00;46636.94;5025228;28;20030;-67
2023/10/23 06:58:14;;;;;;;60.13;12.83;;;;;;;-145.18;100.00;46638.91;5020178;28;20482;-67
2023/10/23 07:00:39;;;;;;;57.33;12.30;;;;;;;-145.18;100.00;46642.81;5023636;28;20036;-67
2023/10/23 07:03:05;;;;;;;37.87;13.63;;;;;;;-145.18;100.00;46636.94;5024655;28;20481;-67
2023/10/23 07:05:30;;;;;;;60.73;12.93;;;;;;;-145.18;100.00;46636.94;5032793;28;20022;-67
2023/10/23 07:07:55;;;;;;;78.00;15.10;;;;;;;-145.18;100.00;46636.94;5029289;28;20082;-67
2023/10/23 07:10:21;;;;;;;43.50;12.27;;;;;;;-145.18;100.00;46633.06;5028000;28;20033;-67
2023/10/23 07:12:46;;;;;;;60.63;13.07;;;;;;;-145.18;100.00;46635.00;5029598;28;20060;-67
2023/10/23 07:15:12;;;;;;;58.17;14.03;;;;;;;-145.18;100.00;46635.00;5029966;28;20022;-67
2023/10/23 07:17:37;;;;;;;75.13;14.30;;;;;;;-145.18;100.00;46629.13;5030856;28;20595;-67
2023/10/23 07:20:06;;;;;;;73.10;14.17;;;;;;;-145.18;100.00;46635.00;5029124;28;20075;-68
2023/10/23 07:22:32;;;;;;;50.10;14.50;;;;;;;-145.18;100.00;46633.06;5029008;28;20040;-67
2023/10/23 07:24:58;;;;;;;43.03;14.43;;;;;;;-145.18;100.00;46638.91;5022233;28;20042;-67
2023/10/23 07:27:23;;;;;;;58.30;12.83;;;;;;;-145.18;100.00;46633.06;5019152;28;20393;-69
2023/10/23 07:29:48;;;;;;;45.73;13.77;;;;;;;-145.18;100.00;46631.09;5020898;28;20030;-69
2023/10/23 07:32:14;;;;;;;49.97;13.63;;;;;;;-145.18;100.00;46631.09;5027757;28;20036;-69
2023/10/23 07:34:39;;;;;;;45.93;13.60;;;;;;;-145.18;100.00;46625.22;5005402;28;20022;-69
2023/10/23 07:37:04;;;;;;;38.23;13.50;;;;;;;-145.18;100.00;46631.09;5033193;28;20112;-69
2023/10/23 07:39:30;;;;;;;29.87;12.53;;;;;;;-145.18;100.00;46631.09;5032239;28;20481;-69
2023/10/23 07:41:55;;;;;;;46.43;11.53;;;;;;;-145.18;100.00;46631.09;5024099;28;20040;-69
2023/10/23 07:44:21;;;;;;;41.53;12.83;;;;;;;-145.18;100.00;46631.09;5018419;28;20018;-69
2023/10/23 07:46:46;;;;;;;25.57;12.03;;;;;;;-145.18;100.00;46629.13;5026093;28;20030;-69
2023/10/23 07:49:12;;;;;;;30.43;12.23;;;;;;;-145.18;100.00;46633.06;5027684;28;20541;-69
2023/10/23 07:51:38;;;;;;;49.23;12.40;;;;;;;-145.18;100.00;46629.13;5027436;28;20037;-68
2023/10/23 07:54:04;;;;;;;29.33;11.60;;;;;;;-145.18;100.00;46629.13;5032525;28;20057;-69
2023/10/23 07:56:29;;;;;;;30.23;11.80;;;;;;;-145.18;100.00;46627.19;5015642;28;20306;-69
2023/10/23 07:58:54;;;;;;;38.77;12.17;;;;;;;-145.18;100.00;46633.06;5031146;28;20065;-69
2023/10/23 08:01:20;;;;;;;35.77;11.87;;;;;;;-145.18;100.00;46625.22;5040735;28;20029;-69
2023/10/23 08:03:45;;;;;;;34.40;12.03;;;;;;;-145.18;100.00;46621.31;5018323;28;20117;-69
2023/10/23 08:06:11;;;;;;;59.90;13.50;;;;;;;-145.18;100.00;46623.28;5029685;28;20116;-69
2023/10/23 08:08:40;;;;;;;34.00;12.90;;;;;;;-145.18;100.00;46623.28;5036295;28;20013;-69
2023/10/23 08:11:08;;;;;;;40.13;13.30;;;;;;;-145.18;100.00;46629.13;5027028;28;20034;-69
2023/10/23 08:13:34;;;;;;;39.07;13.77;;;;;;;-145.18;100.00;46629.13;5030204;28;20021;-69
2023/10/23 08:16:01;;;;;;;46.77;12.57;;;;;;;-145.18;100.00;46621.31;5022268;28;20037;-69
2023/10/23 08:18:26;;;;;;;39.27;12.13;;;;;;;-145.18;100.00;46621.31;5024444;28;20631;-69
2023/10/23 08:20:51;;;;;;;30.10;12.73;;;;;;;-145.18;100.00;46617.41;5018187;28;20085;-69
2023/10/23 08:23:17;;;;;;;32.50;11.70;;;;;;;-145.18;100.00;46621.31;5028716;28;20025;-69
2023/10/23 08:25:44;;;;;;;40.93;11.70;;;;;;;-145.18;100.00;46615.47;5029286;28;20072;-69
2023/10/23 08:28:10;;;;;;;58.13;11.53;;;;;;;-145.18;100.00;46619.38;5025795;28;20051;-69
2023/10/23 08:30:35;;;;;;;26.87;10.60;;;;;;;-145.18;100.00;46623.28;5023631;28;20034;-69
2023/10/23 08:33:00;;;;;;;38.63;10.60;;;;;;;-145.18;100.00;46621.31;5025059;28;20052;-69
2023/10/23 08:35:28;;;;;;;36.23;10.43;;;;;;;-145.18;100.00;46619.38;5017728;28;20030;-69
2023/10/23 08:37:54;;;;;;;44.73;10.93;;;;;;;-145.18;100.00;46621.31;5024119;28;20060;-69
2023/10/23 08:40:21;;;;;;;31.07;9.97;;;;;;;-145.18;100.00;46617.41;5030219;28;20029;-69
2023/10/23 08:42:47;;;;;;;25.23;11.00;;;;;;;-145.18;100.00;46621.31;5019867;28;20489;-69
2023/10/23 08:45:14;;;;;;;30.17;12.40;;;;;;;-145.18;100.00;46617.41;5018416;28;20025;-69
2023/10/23 08:47:40;;;;;;;33.47;13.93;;;;;;;-145.18;100.00;46617.41;5024521;28;20037;-69
2023/10/23 08:50:06;;;;;;;29.17;13.67;;;;;;;-145.18;100.00;46617.41;5025651;28;20041;-69
2023/10/23 08:52:34;;;;;;;35.50;13.77;;;;;;;-145.18;100.00;46619.38;5031358;28;20025;-69
2023/10/23 08:55:02;;;;;;;41.33;15.83;;;;;;;-145.18;100.00;46617.41;5029979;28;20091;-69
2023/10/23 08:57:29;;;;;;;38.57;17.00;;;;;;;-145.18;100.00;46617.41;5030986;28;20033;-69
2023/10/23 08:59:54;;;;;;;50.43;18.00;;;;;;;-145.18;100.00;46617.41;5035836;28;20083;-69
2023/10/23 09:02:21;;;;;;;46.00;19.87;;;;;;;-145.18;100.00;46615.47;5031095;28;20026;-69
2023/10/23 09:04:46;;;;;;;41.10;18.50;;;;;;;-145.18;100.00;46615.47;5031306;28;20030;-69
2023/10/23 09:07:12;;;;;;;41.33;18.10;;;;;;;-145.18;100.00;46619.38;5026503;28;20037;-69
2023/10/23 09:09:37;;;;;;;33.53;17.70;;;;;;;-145.18;100.00;46617.41;5025970;28;20022;-69
2023/10/23 09:12:03;;;;;;;40.53;18.30;;;;;;;-145.18;100.00;46617.41;5018698;28;20521;-70
2023/10/23 09:14:35;;;;;;;45.00;18.97;;;;;;;-145.18;100.00;46617.41;5028928;28;20100;-69
2023/10/23 09:17:00;;;;;;;44.20;19.50;;;;;;;-145.18;100.00;46615.47;5023323;28;20478;-69
2023/10/23 09:19:27;;;;;;;38.60;18.83;;;;;;;-145.18;100.00;46621.31;5024618;28;20033;-70
2023/10/23 09:21:56;;;;;;;38.33;20.00;;;;;;;-145.18;100.00;46621.31;5030258;28;20037;-69
2023/10/23 09:24:22;;;;;;;43.53;20.60;;;;;;;-145.18;100.00;46621.31;5030061;28;20052;-69
2023/10/23 09:26:50;;;;;;;40.40;20.60;;;;;;;-145.18;100.00;46625.22;5027216;28;20025;-69
2023/10/23 09:29:20;;;;;;;47.83;20.47;;;;;;;-145.18;100.00;46625.22;5015632;28;20112;-69
2023/10/23 09:31:45;;;;;;;38.73;20.33;;;;;;;-145.18;100.00;46631.09;5027716;28;20536;-69
2023/10/23 09:34:12;;;;;;;38.50;19.90;;;;;;;-145.18;100.00;46627.19;5027288;28;20034;-69
2023/10/23 09:36:38;;;;;;;37.83;20.80;;;;;;;-145.18;100.00;46631.09;5024419;28;20026;-69
2023/10/23 09:39:04;;;;;;;39.20;19.63;;;;;;;-145.18;100.00;46629.13;5025624;28;20566;-70
2023/10/23 09:41:30;;;;;;;39.90;21.00;;;;;;;-145.18;100.00;46629.13;5028057;28;20108;-69
2023/10/23 09:43:57;;;;;;;37.27;20.83;;;;;;;-145.18;100.00;46629.13;5023694;28;20037;-70
2023/10/23 09:46:25;;;;;;;34.77;19.77;;;;;;;-145.18;100.00;46636.94;5020372;28;20029;-68
2023/10/23 09:48:51;;;;;;;32.63;18.67;;;;;;;-145.18;100.00;46638.91;5019835;28;20032;-68
2023/10/23 09:51:19;;;;;;;34.37;17.80;;;;;;;-145.18;100.00;46635.00;5027260;28;20034;-68
2023/10/23 09:54:00;;;;;;;40.23;17.57;;;;;;;-145.18;100.00;46638.91;5033351;28;20025;-68
2023/10/23 09:56:32;;;;;;;29.10;16.27;;;;;;;-145.18;100.00;46640.88;5031516;28;20116;-68
2023/10/23 09:59:00;;;;;;;27.27;16.30;;;;;;;-145.18;100.00;46642.81;5042446;28;20082;-68
2023/10/23 10:01:35;;;;;;;33.40;16.17;;;;;;;-145.18;100.00;46646.72;5033193;28;20026;-68
2023/10/23 10:04:13;;;;;;;32.42;15.65;;;;;;;-145.18;100.00;46640.88;5028913;28;20030;-68
2023/10/23 10:06:44;;;;;;;28.77;16.50;;;;;;;-145.18;100.00;46646.72;5030261;28;20025;-68
2023/10/23 10:09:12;;;;;;;27.17;15.63;;;;;;;-145.18;100.00;46648.69;5021457;28;20025;-68
2023/10/23 10:11:42;;;;;;;29.67;15.07;;;;;;;-145.18;100.00;46652.59;5035062;28;20041;-68
2023/10/23 10:14:07;;;;;;;28.10;14.47;;;;;;;-145.18;100.00;46652.59;5029400;28;20030;-68
2023/10/23 10:16:33;;;;;;;26.73;14.77;;;;;;;-145.18;100.00;46652.59;5030054;28;20539;-68
2023/10/23 10:19:00;;;;;;;26.20;14.03;;;;;;;-145.18;100.00;46662.34;5025089;28;20540;-69
2023/10/23 10:21:31;;;;;;;27.73;14.63;;;;;;;-145.18;100.00;46648.69;5026026;28;20589;-68
2023/10/23 10:23:59;;;;;;;29.17;14.10;;;;;;;-145.18;100.00;46660.41;5031413;28;20037;-68
2023/10/23 10:26:25;;;;;;;22.03;13.40;;;;;;;-145.18;100.00;46654.53;5028353;28;20036;-68
2023/10/23 10:28:53;;;;;;;21.67;12.67;;;;;;;-145.18;100.00;46664.31;5029225;28;20041;-68
2023/10/23 10:31:21;;;;;;;18.07;11.40;;;;;;;-145.18;100.00;46668.22;5031292;28;20035;-68
2023/10/23 10:33:47;;;;;;;20.00;12.27;;;;;;;-145.18;100.00;46666.25;5023744;28;20038;-68
2023/10/23 10:36:16;;;;;;;17.60;11.27;;;;;;;-145.18;100.00;46668.22;5029394;28;20041;-68
2023/10/23 10:38:42;;;;;;;20.77;12.20;;;;;;;-145.18;100.00;46666.25;5029099;28;20042;-68
2023/10/23 10:41:15;;;;;;;21.17;11.63;;;;;;;-145.18;100.00;46664.31;5032012;28;20033;-68
2023/10/23 10:43:41;;;;;;;26.63;12.47;;;;;;;-145.18;100.00;46672.13;5024975;28;20092;-68
2023/10/23 10:46:21;;;;;;;20.07;11.00;;;;;;;-145.18;100.00;46668.22;5026873;28;20033;-68
2023/10/23 10:48:48;;;;;;;20.27;11.10;;;;;;;-145.18;100.00;46670.16;5029349;28;20489;-68
2023/10/23 10:51:19;;;;;;;19.00;10.63;;;;;;;-145.18;100.00;46672.13;5031059;28;20064;-68
2023/10/23 10:53:46;;;;;;;16.47;9.77;;;;;;;-145.18;100.00;46672.13;5030169;28;20121;-68
2023/10/23 10:56:12;;;;;;;22.70;10.80;;;;;;;-145.18;100.00;46672.13;5028752;28;20033;-68